Haines, AK

5:56 AM AKST on January 23, 2017 (GMT -0900)
Letnikof Cove | | Change Station
Active Advisory: Winter Weather Advisory

Elev 230 ft 59.17 °N, 135.39 °W | Updated 1 minute ago

Light Snow
Light Snow Mist
27.5 °F
Feels Like 28 °F
N
0.0
Wind Variable Wind from SE
Gusts 0.0 mph

Today
High -- | Low -- °F
--% Chance of Precip.
Yesterday
High -- | Low -- °F
Precip. -- in
Pressure 29.73 in
Visibility 1.8 miles
Clouds Overcast 1800 ft
Windchill 28 °F
Dew Point 27 °F
Humidity 99%
Rainfall 0.00 in
Snow Depth Not available.
8:29 AM 3:59 PM
Waning Crescent, 18% visible
METAR PAHN 231454Z AUTO 28005KT 1 3/4SM -SN BR OVC018 M06/M07 A2972 RMK AO2 SLP067 P0001 60010 T10561067 50005 TSNO
Pressure 29.73 in
Visibility 1.8 miles
Clouds Overcast 1800 ft
Windchill 28 °F
Dew Point 27 °F
Humidity 99%
Rainfall 0.00 in
Snow Depth Not available.
8:29 AM 3:59 PM
Waning Crescent, 18% visible
METAR PAHN 231454Z AUTO 28005KT 1 3/4SM -SN BR OVC018 M06/M07 A2972 RMK AO2 SLP067 P0001 60010 T10561067 50005 TSNO

Get Your Daily Forecast Email!

Thanks for signing up!

Be on the lookout for a verification email in your inbox.

You'll start receiving the daily forecast at 8 AM.

×

10-Day Weather Forecast

Almanac

Astronomy

Jan. 23, 2017 Rise Set
Actual Time
Civil Twilight
Nautical Twilight
Astronomical Twilight
Moon
Length of Visible Light
Length of Day
Tomorrow will be .
, % of the Moon is Illuminated

Today's Extremes

State Highs State Lows

Community

WunderPhotos

Upload Photos

1,962,540 photos uploaded!

WunderBlog® & News

Nearby

Air Quality

  Air Quality AQ Index Pollutant
Not available.

Snow Depth

Station Depth Elevation

Earthquake Activity

City Distance Mag. Time & Date
Minimum magnitude displayed is 2.5.

Coastal Water Temperatures

Place Temperature

Stations

Nearby Weather Stations

Station Location Temp. Windchill Dew Point Humidity Wind Precip. Elev Updated Type
                   

Watches & Warnings

Winter Weather Advisory
Issued: 4:27 AM AKST Jan. 23, 2017 – National Weather Service

... Winter Weather Advisory remains in effect until 9 am akst this
morning...

* snow... additional 1 to 2 inches through Monday morning.

* Impacts... travel will be hazardous due to snow covered roads.
Visibility may be reduced below 1 mile at times.

Precautionary/preparedness actions...

An advisory means that a potentially hazardous event is already
occurring or imminent.

This statement will be updated by 9 am akst Monday or sooner if
conditions warrant.